Time;durP1;ratioP1;P1;durP2;ratioP2;P2;SDS_P1;SDS_P2;PMS_P1;PMS_P2;Temp;Humidity;BMP_temperature;BMP_pressure;BME280_temperature;BME280_humidity;BME280_pressure;Samples;Min_cycle;Max_cycle;Signal;HPM_P1;HPM_P2
2022/01/06 00:00:10;;;;;;;16.88;3.85;;;23.50;99.90;;;;;;5004577;28;20026;-70
2022/01/06 00:02:40;;;;;;;21.00;3.10;;;23.60;99.90;;;;;;5003074;28;20019;-74
2022/01/06 00:05:09;;;;;;;19.70;4.07;;;23.80;99.90;;;;;;5002003;28;20018;-73
2022/01/06 00:07:37;;;;;;;15.27;4.10;;;23.90;99.90;;;;;;5003498;28;20100;-74
2022/01/06 00:10:09;;;;;;;17.88;4.57;;;23.80;99.90;;;;;;5003803;28;20017;-74
2022/01/06 00:12:45;;;;;;;15.80;3.83;;;24.00;99.90;;;;;;5000924;28;20026;-70
2022/01/06 00:15:36;;;;;;;20.73;4.00;;;24.20;99.90;;;;;;5000970;28;20546;-73
2022/01/06 00:25:50;;;;;;;15.00;3.13;;;24.10;99.90;;;;;;5001698;28;20030;-68
2022/01/06 00:28:19;;;;;;;27.42;3.22;;;24.20;99.90;;;;;;5003243;28;20088;-69
2022/01/06 00:30:47;;;;;;;19.92;4.47;;;24.10;99.90;;;;;;5002640;28;20125;-72
2022/01/06 00:33:15;;;;;;;14.38;3.45;;;24.10;99.90;;;;;;5000156;28;20022;-73
2022/01/06 00:35:43;;;;;;;21.27;3.65;;;24.10;99.90;;;;;;5002542;28;20017;-70
2022/01/06 00:38:11;;;;;;;20.67;3.47;;;24.20;99.90;;;;;;5003813;28;20054;-70
2022/01/06 00:40:39;;;;;;;19.77;4.75;;;24.30;99.90;;;;;;5002673;28;20357;-69
2022/01/06 00:43:08;;;;;;;16.27;3.97;;;24.20;99.90;;;;;;5001914;28;20037;-69
2022/01/06 00:45:36;;;;;;;15.98;3.50;;;24.30;99.90;;;;;;5000104;28;20550;-69
2022/01/06 00:48:10;;;;;;;18.90;3.40;;;24.20;99.90;;;;;;5003915;28;20078;-74
2022/01/06 00:50:39;;;;;;;18.35;3.60;;;24.40;99.90;;;;;;5004047;28;20023;-74
2022/01/06 00:53:07;;;;;;;15.65;3.88;;;24.70;99.90;;;;;;5005374;28;20025;-74
2022/01/06 00:55:36;;;;;;;13.25;3.47;;;24.60;99.90;;;;;;5000055;28;20082;-70
2022/01/06 00:58:05;;;;;;;15.55;2.95;;;24.20;99.90;;;;;;4991599;28;20106;-74
2022/01/06 01:00:41;;;;;;;28.08;5.03;;;24.10;99.90;;;;;;4990982;28;20041;-72
2022/01/06 01:03:15;;;;;;;23.70;4.97;;;23.90;99.90;;;;;;4991198;28;20421;-74
2022/01/06 01:05:45;;;;;;;19.17;4.00;;;23.80;99.90;;;;;;4992930;28;20038;-75
2022/01/06 01:08:13;;;;;;;15.95;4.10;;;23.90;99.90;;;;;;4994943;28;20645;-71
2022/01/06 01:10:43;;;;;;;19.80;4.03;;;24.00;99.90;;;;;;4996394;28;20035;-72
2022/01/06 01:13:11;;;;;;;21.00;4.22;;;24.40;99.90;;;;;;4995040;28;20542;-73
2022/01/06 01:15:51;;;;;;;18.13;3.50;;;24.40;99.90;;;;;;4995211;28;20033;-71
2022/01/06 01:18:20;;;;;;;18.48;3.97;;;24.30;99.90;;;;;;4994943;28;20037;-71
2022/01/06 01:20:48;;;;;;;14.90;3.80;;;24.40;99.90;;;;;;4992306;28;20023;-73
2022/01/06 01:23:17;;;;;;;15.02;3.63;;;24.60;99.90;;;;;;4994833;28;20430;-71
2022/01/06 01:25:45;;;;;;;24.88;3.78;;;24.70;99.90;;;;;;4994689;28;20088;-71
2022/01/06 01:28:15;;;;;;;15.98;3.53;;;24.80;99.90;;;;;;4994666;28;20030;-71
2022/01/06 01:33:31;;;;;;;18.02;2.83;;;25.50;99.90;;;;;;4994720;28;20070;-73
2022/01/06 01:35:59;;;;;;;15.32;2.88;;;25.80;99.90;;;;;;4993917;28;20015;-73
2022/01/06 01:38:26;;;;;;;13.85;3.67;;;26.10;99.90;;;;;;4994775;28;20050;-73
2022/01/06 01:40:54;;;;;;;19.17;3.85;;;25.70;99.90;;;;;;4994503;28;20518;-74
2022/01/06 01:43:22;;;;;;;11.70;2.85;;;25.50;99.90;;;;;;4995243;28;20026;-73
2022/01/06 01:45:56;;;;;;;16.05;3.45;;;25.10;99.90;;;;;;4997848;28;20384;-75
2022/01/06 01:48:31;;;;;;;18.75;3.47;;;24.70;99.90;;;;;;4994920;28;20387;-69
2022/01/06 01:50:58;;;;;;;;;;;24.50;99.90;;;;;;4991791;28;20041;-69
2022/01/06 01:53:26;;;;;;;14.40;3.60;;;24.80;99.90;;;;;;4990526;28;19914;-73
2022/01/06 01:55:53;;;;;;;15.48;3.97;;;25.20;99.90;;;;;;4993837;28;20026;-72
2022/01/06 01:58:22;;;;;;;14.07;3.50;;;25.30;99.90;;;;;;4993974;28;20369;-73
2022/01/06 02:00:50;;;;;;;15.43;3.38;;;25.50;99.90;;;;;;4984414;28;20030;-73
2022/01/06 02:03:18;;;;;;;18.90;3.55;;;25.90;99.90;;;;;;4990664;28;20041;-71
2022/01/06 02:05:45;;;;;;;11.88;4.10;;;26.10;99.90;;;;;;4992787;28;20042;-73
2022/01/06 02:08:13;;;;;;;27.45;3.05;;;26.00;99.90;;;;;;4993487;28;20023;-72
2022/01/06 02:10:41;;;;;;;15.52;3.33;;;25.70;99.90;;;;;;4989453;28;20081;-72
2022/01/06 02:13:08;;;;;;;13.35;2.90;;;25.50;99.90;;;;;;4993117;28;20077;-69
2022/01/06 02:15:36;;;;;;;14.18;3.53;;;25.70;99.90;;;;;;4993319;28;20475;-73
2022/01/06 02:18:04;;;;;;;13.23;2.85;;;25.60;99.90;;;;;;4994879;28;20046;-73
2022/01/06 02:20:32;;;;;;;11.38;3.47;;;25.50;99.90;;;;;;4994464;28;20077;-74
2022/01/06 02:22:59;;;;;;;18.38;3.80;;;25.40;99.90;;;;;;4994642;28;20472;-73
2022/01/06 02:25:32;;;;;;;18.50;3.42;;;25.40;99.90;;;;;;4993109;28;20038;-73
2022/01/06 02:28:02;;;;;;;13.80;3.78;;;25.10;99.90;;;;;;4994541;28;20517;-74
2022/01/06 02:30:33;;;;;;;13.73;3.58;;;25.00;99.90;;;;;;4996409;28;20097;-73
2022/01/06 02:33:01;;;;;;;20.90;4.70;;;24.90;99.90;;;;;;4993561;28;20109;-74
2022/01/06 02:35:31;;;;;;;23.65;4.68;;;25.20;99.90;;;;;;4993465;28;20025;-75
2022/01/06 02:37:59;;;;;;;13.40;2.88;;;25.30;99.90;;;;;;4993650;28;20065;-72
2022/01/06 02:40:27;;;;;;;16.15;3.65;;;25.50;99.90;;;;;;4993559;28;20038;-73
2022/01/06 02:42:58;;;;;;;19.52;3.50;;;24.90;99.90;;;;;;4993466;28;20053;-73
2022/01/06 02:45:28;;;;;;;12.75;3.22;;;24.70;99.90;;;;;;4993366;28;20038;-71
2022/01/06 02:47:57;;;;;;;17.17;3.85;;;24.70;99.90;;;;;;4993716;28;20392;-70
2022/01/06 02:50:26;;;;;;;19.23;3.33;;;24.60;99.90;;;;;;4993429;28;20026;-69
2022/01/06 02:52:54;;;;;;;14.45;3.65;;;24.60;99.90;;;;;;4993420;28;20037;-68
2022/01/06 02:55:22;;;;;;;16.40;4.22;;;24.70;99.90;;;;;;4995967;28;20018;-68
2022/01/06 02:57:49;;;;;;;18.00;3.42;;;24.80;99.90;;;;;;4993063;28;20467;-69
2022/01/06 03:00:19;;;;;;;14.70;3.75;;;24.70;99.90;;;;;;4992839;28;20030;-70
2022/01/06 03:02:48;;;;;;;20.25;3.28;;;24.70;99.90;;;;;;4993068;28;20019;-72
2022/01/06 03:05:17;;;;;;;15.10;2.67;;;24.70;99.90;;;;;;4992899;28;20041;-71
2022/01/06 03:07:46;;;;;;;10.82;2.97;;;24.90;99.90;;;;;;4992925;28;20023;-70
2022/01/06 03:10:16;;;;;;;18.73;4.47;;;25.10;99.90;;;;;;4994546;28;20124;-72
2022/01/06 03:12:46;;;;;;;16.02;3.08;;;25.20;99.90;;;;;;4991858;28;20030;-70
2022/01/06 03:15:16;;;;;;;18.05;3.13;;;25.00;99.90;;;;;;4992303;28;20025;-69
2022/01/06 03:17:49;;;;;;;21.45;4.10;;;24.80;99.90;;;;;;4992338;28;20073;-70
2022/01/06 03:20:18;;;;;;;23.08;3.83;;;24.70;99.90;;;;;;4992360;28;20031;-69
2022/01/06 03:22:46;;;;;;;29.20;5.43;;;24.70;99.90;;;;;;4992045;28;20037;-69
2022/01/06 03:25:15;;;;;;;16.95;3.88;;;24.60;99.90;;;;;;4992257;28;20460;-70
2022/01/06 03:27:44;;;;;;;15.77;2.50;;;24.60;99.90;;;;;;4987402;28;20137;-72
2022/01/06 03:30:18;;;;;;;21.52;2.95;;;24.80;99.90;;;;;;4991107;28;20034;-72
2022/01/06 03:32:46;;;;;;;20.67;3.53;;;25.30;99.90;;;;;;4992211;28;20022;-69
2022/01/06 03:35:17;;;;;;;13.73;4.18;;;25.70;99.90;;;;;;4992080;28;20022;-74
2022/01/06 03:37:45;;;;;;;14.68;3.20;;;25.80;99.90;;;;;;4992319;28;20026;-73
2022/01/06 03:40:14;;;;;;;25.88;3.90;;;26.00;99.90;;;;;;4987526;28;20109;-74
2022/01/06 03:42:42;;;;;;;16.90;3.83;;;26.10;99.90;;;;;;4990928;28;20073;-73
2022/01/06 03:45:20;;;;;;;14.45;3.10;;;25.60;99.90;;;;;;4991802;28;20022;-73
2022/01/06 03:47:48;;;;;;;21.75;3.20;;;25.20;99.90;;;;;;4992230;28;20118;-75
2022/01/06 03:50:16;;;;;;;13.65;2.65;;;24.80;99.90;;;;;;4992260;28;20049;-72
2022/01/06 03:52:45;;;;;;;15.18;3.20;;;24.70;99.90;;;;;;4992342;28;20023;-70
2022/01/06 03:55:18;;;;;;;8.95;3.38;;;24.60;99.90;;;;;;4991976;28;20030;-71
2022/01/06 03:57:47;;;;;;;17.40;3.33;;;24.60;99.90;;;;;;4991136;28;20018;-72
2022/01/06 04:00:18;;;;;;;14.80;3.35;;;24.70;99.90;;;;;;4992089;28;20038;-72
2022/01/06 04:02:47;;;;;;;13.52;2.70;;;24.70;99.90;;;;;;4994762;28;20018;-69
2022/01/06 04:05:15;;;;;;;11.63;2.90;;;24.50;99.90;;;;;;4991843;28;20061;-72
2022/01/06 04:07:43;;;;;;;14.80;3.60;;;24.40;99.90;;;;;;4992153;28;20038;-71
2022/01/06 04:10:11;;;;;;;15.48;2.75;;;24.50;99.90;;;;;;4991609;28;20109;-73
2022/01/06 04:12:39;;;;;;;14.98;3.42;;;24.50;99.90;;;;;;5002518;28;20021;-70
2022/01/06 04:15:13;;;;;;;15.18;3.30;;;24.70;99.90;;;;;;5001825;28;20021;-71
2022/01/06 04:17:44;;;;;;;18.60;3.00;;;24.80;99.90;;;;;;5001094;28;20030;-72
2022/01/06 04:20:13;;;;;;;12.35;3.78;;;25.10;99.90;;;;;;5001775;28;20070;-71
2022/01/06 04:22:42;;;;;;;16.08;3.25;;;25.10;99.90;;;;;;5004465;28;20533;-71
2022/01/06 04:25:10;;;;;;;18.33;2.90;;;25.10;99.90;;;;;;5007577;28;20057;-70
2022/01/06 04:27:38;;;;;;;9.35;2.90;;;25.10;99.90;;;;;;5005995;28;20049;-71
2022/01/06 04:30:07;;;;;;;21.58;3.35;;;24.80;99.90;;;;;;5006232;28;20022;-71
2022/01/06 04:32:36;;;;;;;20.98;3.90;;;24.90;99.90;;;;;;4976233;28;20034;-70
2022/01/06 04:35:04;;;;;;;13.57;2.80;;;24.90;99.90;;;;;;4978523;28;20022;-71
2022/01/06 04:37:32;;;;;;;16.10;2.58;;;24.90;99.90;;;;;;4997344;28;20033;-71
2022/01/06 04:40:00;;;;;;;14.68;2.63;;;25.00;99.90;;;;;;4997245;28;20022;-70
2022/01/06 04:42:27;;;;;;;16.90;4.03;;;25.10;99.90;;;;;;4995697;28;20022;-71
2022/01/06 04:44:55;;;;;;;14.15;2.38;;;25.00;99.90;;;;;;4994763;28;20059;-70
2022/01/06 04:47:23;;;;;;;20.67;3.83;;;24.60;99.90;;;;;;4994989;28;20125;-70
2022/01/06 04:49:50;;;;;;;18.60;3.78;;;24.50;99.90;;;;;;4993462;28;20026;-70
2022/01/06 04:52:18;;;;;;;20.80;4.43;;;24.30;99.90;;;;;;4993175;28;20030;-70
2022/01/06 04:54:46;;;;;;;16.27;3.35;;;24.30;99.90;;;;;;4993706;28;20117;-70
2022/01/06 04:57:14;;;;;;;17.15;3.72;;;24.20;99.90;;;;;;4994876;28;20022;-70
2022/01/06 04:59:42;;;;;;;15.85;3.00;;;24.20;99.90;;;;;;4995406;28;20117;-71
2022/01/06 05:02:09;;;;;;;17.67;4.10;;;24.10;99.90;;;;;;4995411;28;20105;-70
2022/01/06 05:04:37;;;;;;;17.77;3.75;;;24.00;99.90;;;;;;4996950;28;20034;-70
2022/01/06 05:07:05;;;;;;;20.95;3.80;;;24.10;99.90;;;;;;4996988;28;20041;-72
2022/01/06 05:09:32;;;;;;;13.80;3.55;;;24.30;99.90;;;;;;4996901;28;20399;-71
2022/01/06 05:12:00;;;;;;;15.75;3.95;;;24.20;99.90;;;;;;4996855;28;20406;-74
2022/01/06 05:14:28;;;;;;;14.55;2.42;;;24.10;99.90;;;;;;4996932;28;20376;-70
2022/01/06 05:16:56;;;;;;;19.88;3.85;;;24.00;99.90;;;;;;4996789;28;20124;-71
2022/01/06 05:19:24;;;;;;;19.05;4.05;;;23.90;99.90;;;;;;4996798;28;20030;-70
2022/01/06 05:21:52;;;;;;;14.80;3.78;;;23.70;99.90;;;;;;4996653;28;20026;-70
2022/01/06 05:24:23;;;;;;;15.32;3.13;;;23.70;99.90;;;;;;4996665;28;20034;-70
2022/01/06 05:26:54;;;;;;;18.05;3.28;;;23.50;99.90;;;;;;4996175;28;20050;-70
2022/01/06 05:29:22;;;;;;;20.23;4.22;;;23.40;99.90;;;;;;4996731;28;20067;-71
2022/01/06 05:31:50;;;;;;;18.67;4.30;;;23.30;99.90;;;;;;4996626;28;20027;-70
2022/01/06 05:34:18;;;;;;;13.68;3.03;;;23.30;99.90;;;;;;4995307;28;20464;-71
2022/01/06 05:36:46;;;;;;;17.40;3.75;;;23.30;99.90;;;;;;4996422;28;20054;-70
2022/01/06 05:39:13;;;;;;;28.35;3.20;;;23.20;99.90;;;;;;4996423;28;20471;-71
2022/01/06 05:41:41;;;;;;;20.83;3.80;;;23.30;99.90;;;;;;4996707;28;20030;-72
2022/01/06 05:44:09;;;;;;;21.08;4.82;;;23.30;99.90;;;;;;4996558;28;20022;-71
2022/01/06 05:46:37;;;;;;;15.75;4.05;;;23.40;99.90;;;;;;4996218;28;20092;-71
2022/01/06 05:49:05;;;;;;;22.33;4.18;;;23.50;99.90;;;;;;4996123;28;20388;-71
2022/01/06 05:51:33;;;;;;;17.45;3.75;;;23.60;99.90;;;;;;4996244;28;20493;-71
2022/01/06 05:54:00;;;;;;;20.70;4.13;;;23.70;99.90;;;;;;4996962;28;20050;-71
2022/01/06 05:56:28;;;;;;;11.05;3.22;;;23.80;99.90;;;;;;4996137;28;20030;-71
2022/01/06 05:58:56;;;;;;;20.17;3.55;;;24.10;99.90;;;;;;4996151;28;20022;-71
2022/01/06 06:01:24;;;;;;;14.50;3.83;;;24.40;99.90;;;;;;4995971;28;20080;-71
2022/01/06 06:03:54;;;;;;;17.02;4.70;;;24.60;99.90;;;;;;4995988;28;20102;-71
2022/01/06 06:06:21;;;;;;;22.15;4.13;;;24.60;99.90;;;;;;4994640;28;20034;-70
2022/01/06 06:08:49;;;;;;;23.58;4.07;;;24.60;99.90;;;;;;4995718;28;20026;-70
2022/01/06 06:11:20;;;;;;;21.45;3.83;;;24.80;99.90;;;;;;4982659;28;20529;-74
2022/01/06 06:13:48;;;;;;;12.65;2.72;;;24.90;99.90;;;;;;4976393;28;20027;-73
2022/01/06 06:16:15;;;;;;;18.35;3.42;;;24.60;99.90;;;;;;4974696;28;20602;-70
2022/01/06 06:18:43;;;;;;;20.20;4.88;;;24.60;99.90;;;;;;4975189;28;20062;-80
2022/01/06 06:21:11;;;;;;;19.05;3.35;;;24.60;99.90;;;;;;4976958;28;20033;-78
2022/01/06 06:23:38;;;;;;;28.80;4.15;;;24.30;99.90;;;;;;4976534;28;20026;-75
2022/01/06 06:26:06;;;;;;;25.40;3.53;;;24.40;99.90;;;;;;4976897;28;20098;-76
2022/01/06 06:28:34;;;;;;;17.42;3.53;;;24.40;99.90;;;;;;4976479;28;20495;-69
2022/01/06 06:31:01;;;;;;;16.02;3.67;;;24.30;99.90;;;;;;4976207;28;20055;-69
2022/01/06 06:33:29;;;;;;;23.35;3.97;;;24.20;99.90;;;;;;4976372;28;20022;-75
2022/01/06 06:35:57;;;;;;;21.42;4.05;;;24.20;99.90;;;;;;4975876;28;20113;-70
2022/01/06 06:38:25;;;;;;;17.63;4.13;;;24.30;99.90;;;;;;4976120;28;20465;-77
2022/01/06 06:40:52;;;;;;;14.02;3.47;;;24.40;99.90;;;;;;4976437;28;20438;-74
2022/01/06 06:43:20;;;;;;;18.02;4.00;;;24.10;99.90;;;;;;4976241;28;20029;-76
2022/01/06 06:45:48;;;;;;;17.08;2.80;;;24.00;99.90;;;;;;4975529;28;20031;-75
2022/01/06 06:48:15;;;;;;;20.95;3.10;;;24.00;99.90;;;;;;4975878;28;20596;-70
2022/01/06 06:50:43;;;;;;;19.67;4.57;;;24.00;99.90;;;;;;4976063;28;20037;-79
2022/01/06 06:53:11;;;;;;;16.77;4.28;;;23.90;99.90;;;;;;4975806;28;20102;-70
2022/01/06 06:55:39;;;;;;;15.32;2.85;;;23.70;99.90;;;;;;4975579;28;20054;-75
2022/01/06 06:58:06;;;;;;;16.10;3.03;;;23.80;99.90;;;;;;4975401;28;20480;-76
2022/01/06 07:00:34;;;;;;;27.77;4.40;;;24.00;99.90;;;;;;4975524;28;20063;-80
2022/01/06 07:03:02;;;;;;;16.13;3.38;;;24.00;99.90;;;;;;4975586;28;20472;-78
2022/01/06 07:05:30;;;;;;;19.33;4.13;;;24.10;99.90;;;;;;4975587;28;20076;-73
2022/01/06 07:07:57;;;;;;;18.88;3.65;;;24.00;99.90;;;;;;4975083;28;20023;-76
2022/01/06 07:10:28;;;;;;;16.60;3.20;;;24.10;99.90;;;;;;4975500;28;20030;-80
2022/01/06 07:12:55;;;;;;;20.08;3.70;;;23.90;99.90;;;;;;4975342;28;20034;-79
2022/01/06 07:15:23;;;;;;;20.30;3.88;;;23.60;99.90;;;;;;4975214;28;20476;-75
2022/01/06 07:17:51;;;;;;;22.83;3.72;;;23.50;99.90;;;;;;4975151;28;20031;-75
2022/01/06 07:20:19;;;;;;;25.17;4.25;;;23.50;99.90;;;;;;4975027;28;20379;-76
2022/01/06 07:22:46;;;;;;;27.60;4.38;;;23.60;99.90;;;;;;4975775;28;20162;-72
2022/01/06 07:25:14;;;;;;;25.65;3.78;;;23.60;99.90;;;;;;4975715;28;20049;-77
2022/01/06 07:27:42;;;;;;;14.88;3.42;;;23.70;99.90;;;;;;4974222;28;20420;-74
2022/01/06 07:30:10;;;;;;;26.08;3.97;;;23.60;99.90;;;;;;4974725;28;20023;-74
2022/01/06 07:32:45;;;;;;;28.98;4.38;;;23.60;99.90;;;;;;4974433;28;20114;-73
2022/01/06 07:35:14;;;;;;;19.63;4.30;;;23.60;99.90;;;;;;4984222;28;20766;-76
2022/01/06 07:37:42;;;;;;;19.92;4.47;;;23.60;99.90;;;;;;4986800;28;20483;-74
2022/01/06 07:40:12;;;;;;;14.32;3.58;;;23.60;99.90;;;;;;4992982;28;20029;-71
2022/01/06 07:42:39;;;;;;;26.17;3.45;;;23.40;99.90;;;;;;4992802;28;20109;-75
2022/01/06 07:45:07;;;;;;;18.48;3.40;;;23.30;99.90;;;;;;4990485;28;20471;-74
2022/01/06 07:47:42;;;;;;;17.70;3.15;;;23.20;99.90;;;;;;4993118;28;20026;-76
2022/01/06 07:50:10;;;;;;;19.77;4.03;;;23.30;99.90;;;;;;4993692;28;20080;-80
2022/01/06 07:52:38;;;;;;;17.35;3.97;;;23.50;99.90;;;;;;4994004;28;20034;-73
2022/01/06 07:55:06;;;;;;;18.98;4.15;;;23.40;99.90;;;;;;4994168;28;20033;-72
2022/01/06 07:57:34;;;;;;;17.20;3.88;;;23.30;99.90;;;;;;4993380;28;20093;-78
2022/01/06 08:00:02;;;;;;;18.23;4.55;;;23.20;99.90;;;;;;4991789;28;20093;-77
2022/01/06 08:02:30;;;;;;;23.90;4.03;;;23.10;99.90;;;;;;4993839;28;20049;-75
2022/01/06 08:04:57;;;;;;;20.52;3.40;;;23.10;99.90;;;;;;4992659;28;20053;-77
2022/01/06 08:07:24;;;;;;;28.02;4.40;;;23.10;99.90;;;;;;4991980;28;20145;-77
2022/01/06 08:09:52;;;;;;;20.42;2.67;;;23.00;99.90;;;;;;4993820;28;20033;-70
2022/01/06 08:12:19;;;;;;;16.23;2.97;;;23.00;99.90;;;;;;4992395;28;20026;-71
2022/01/06 08:14:46;;;;;;;21.70;5.13;;;22.90;99.90;;;;;;4991645;28;20031;-76
2022/01/06 08:17:14;;;;;;;21.13;3.58;;;22.90;99.90;;;;;;4992143;28;20452;-76
2022/01/06 08:19:43;;;;;;;23.08;4.35;;;22.80;99.90;;;;;;4991613;28;20041;-76
2022/01/06 08:22:11;;;;;;;25.92;5.00;;;22.70;99.90;;;;;;4989829;28;20023;-78
2022/01/06 08:24:38;;;;;;;21.67;3.67;;;22.70;99.90;;;;;;4989347;28;20027;-75
2022/01/06 08:27:08;;;;;;;24.83;3.70;;;22.60;99.90;;;;;;4983221;28;20106;-75
2022/01/06 08:29:42;;;;;;;23.48;4.03;;;22.60;99.90;;;;;;4982035;28;20022;-76
2022/01/06 08:32:09;;;;;;;23.33;4.00;;;22.60;99.90;;;;;;4981409;28;20022;-76
2022/01/06 08:34:37;;;;;;;23.52;4.43;;;22.60;99.90;;;;;;4981834;28;20105;-77
2022/01/06 08:37:05;;;;;;;20.33;4.65;;;22.50;99.90;;;;;;4974983;28;20023;-73
2022/01/06 08:39:32;;;;;;;18.90;3.85;;;22.60;99.90;;;;;;4973388;28;20550;-72
2022/01/06 08:41:59;;;;;;;26.15;4.03;;;22.60;99.90;;;;;;4973062;28;20019;-76
2022/01/06 08:44:27;;;;;;;22.98;3.95;;;22.60;99.90;;;;;;4973134;28;20035;-76
2022/01/06 08:47:00;;;;;;;24.75;4.55;;;22.50;99.90;;;;;;4972141;28;20031;-74
2022/01/06 08:49:29;;;;;;;21.52;4.45;;;22.60;99.90;;;;;;4972869;28;20026;-72
2022/01/06 08:51:56;;;;;;;12.88;3.72;;;22.50;99.90;;;;;;4972735;28;20415;-72
2022/01/06 08:54:23;;;;;;;19.40;4.50;;;22.50;99.90;;;;;;4972950;28;20372;-76
2022/01/06 08:56:51;;;;;;;25.55;4.20;;;22.50;99.90;;;;;;4972856;28;20023;-76
2022/01/06 08:59:18;;;;;;;24.67;4.07;;;22.40;99.90;;;;;;4972617;28;20027;-74
2022/01/06 09:01:45;;;;;;;22.23;4.85;;;22.40;99.90;;;;;;4972265;28;20018;-76
2022/01/06 09:04:13;;;;;;;12.68;3.03;;;22.40;99.90;;;;;;4972514;28;20477;-76
2022/01/06 09:06:40;;;;;;;17.45;3.30;;;22.40;99.90;;;;;;4972323;28;20097;-76
2022/01/06 09:09:07;;;;;;;19.10;3.33;;;22.40;99.90;;;;;;4974445;28;20015;-75
2022/01/06 09:11:35;;;;;;;26.13;4.47;;;22.30;99.90;;;;;;4976242;28;20081;-75
2022/01/06 09:14:02;;;;;;;21.75;4.40;;;22.30;99.90;;;;;;4976220;28;20015;-75
2022/01/06 09:16:29;;;;;;;20.83;3.97;;;22.30;99.90;;;;;;4976188;28;20057;-76
2022/01/06 09:18:57;;;;;;;20.23;4.25;;;22.30;99.90;;;;;;4976003;28;20031;-74
2022/01/06 09:21:24;;;;;;;20.63;3.90;;;22.30;99.90;;;;;;4976457;28;20122;-74
2022/01/06 09:23:52;;;;;;;21.02;4.18;;;22.30;99.90;;;;;;4976481;28;20069;-74
2022/01/06 09:26:20;;;;;;;18.50;3.45;;;22.30;99.90;;;;;;4976163;28;20051;-74
2022/01/06 09:28:48;;;;;;;25.40;4.65;;;22.30;99.90;;;;;;4976325;28;20022;-75
2022/01/06 09:31:15;;;;;;;17.23;3.75;;;22.30;99.90;;;;;;4976415;28;20014;-73
2022/01/06 09:33:42;;;;;;;14.73;3.55;;;22.30;99.90;;;;;;4975880;28;20022;-75
2022/01/06 09:36:10;;;;;;;27.08;3.70;;;22.30;99.90;;;;;;4977146;28;20031;-71
2022/01/06 09:38:38;;;;;;;22.85;4.15;;;22.30;99.90;;;;;;4979429;28;20011;-76
2022/01/06 09:41:06;;;;;;;23.80;3.97;;;22.30;99.90;;;;;;4976127;28;20027;-75
2022/01/06 09:43:34;;;;;;;23.30;3.78;;;22.30;99.90;;;;;;4976334;28;20077;-75
2022/01/06 09:46:08;;;;;;;16.48;3.92;;;22.30;99.90;;;;;;4975675;28;20042;-73
2022/01/06 09:48:37;;;;;;;15.30;3.25;;;22.20;99.90;;;;;;4976035;28;20468;-75
2022/01/06 09:51:05;;;;;;;22.60;4.47;;;22.20;99.90;;;;;;4976048;28;20077;-75
2022/01/06 09:53:33;;;;;;;25.20;4.00;;;22.20;99.90;;;;;;4975746;28;20026;-74
2022/01/06 09:56:00;;;;;;;16.75;3.92;;;22.20;99.90;;;;;;4977430;28;20049;-73
2022/01/06 09:58:28;;;;;;;21.15;3.88;;;22.20;99.90;;;;;;4981231;28;20035;-75
2022/01/06 10:00:56;;;;;;;26.33;4.13;;;22.10;99.90;;;;;;4975755;28;20033;-75
2022/01/06 10:03:36;;;;;;;17.83;3.78;;;22.10;99.90;;;;;;4975648;28;20038;-69
2022/01/06 10:06:24;;;;;;;23.25;4.60;;;22.10;99.90;;;;;;4975327;28;20042;-70
2022/01/06 10:09:01;;;;;;;21.73;3.92;;;22.10;99.90;;;;;;4975569;28;20018;-74
2022/01/06 10:11:33;;;;;;;21.17;2.88;;;22.10;99.90;;;;;;4975521;28;20034;-74
2022/01/06 10:14:05;;;;;;;16.65;3.55;;;22.10;99.90;;;;;;4975087;28;20046;-75
2022/01/06 10:16:33;;;;;;;29.13;3.90;;;22.10;99.90;;;;;;4990430;28;20384;-76
2022/01/06 10:19:12;;;;;;;23.17;3.13;;;22.10;99.90;;;;;;4975466;28;20515;-69
2022/01/06 10:21:40;;;;;;;14.57;3.78;;;22.10;99.90;;;;;;4974744;28;20027;-76
2022/01/06 10:24:17;;;;;;;14.68;3.65;;;22.10;99.90;;;;;;4975318;28;20019;-77
2022/01/06 10:27:06;;;;;;;19.17;3.05;;;22.10;99.90;;;;;;4990642;28;20049;-75
2022/01/06 10:29:40;;;;;;;17.65;3.85;;;22.10;99.90;;;;;;4977748;28;20038;-75
2022/01/06 10:32:09;;;;;;;16.42;3.33;;;22.10;99.90;;;;;;4976987;28;20018;-71
2022/01/06 10:34:45;;;;;;;24.60;4.32;;;22.10;99.90;;;;;;4977205;28;20030;-74
2022/01/06 10:37:22;;;;;;;18.27;3.88;;;22.10;99.90;;;;;;4976021;28;20375;-72
2022/01/06 10:39:53;;;;;;;16.73;3.58;;;22.10;99.90;;;;;;4987757;28;20448;-74
2022/01/06 10:42:31;;;;;;;15.77;3.25;;;22.10;99.90;;;;;;4987309;28;20034;-70
2022/01/06 10:45:10;;;;;;;18.52;5.00;;;22.10;99.90;;;;;;4986783;28;20555;-75
2022/01/06 10:47:47;;;;;;;14.50;3.17;;;22.00;99.90;;;;;;4988040;28;20101;-72
2022/01/06 10:50:19;;;;;;;13.60;2.60;;;22.00;99.90;;;;;;4984443;28;20072;-73
2022/01/06 10:52:48;;;;;;;16.67;3.33;;;21.90;99.90;;;;;;4982696;28;20015;-75
2022/01/06 10:55:22;;;;;;;17.05;4.07;;;21.90;99.90;;;;;;4984240;28;20034;-73
2022/01/06 10:57:58;;;;;;;21.33;5.32;;;21.90;99.90;;;;;;4981943;28;20501;-71
2022/01/06 11:00:49;;;;;;;13.57;2.92;;;21.90;99.90;;;;;;4979216;28;20077;-71
2022/01/06 11:03:25;;;;;;;26.42;4.38;;;21.90;99.90;;;;;;4979603;28;20027;-70
2022/01/06 11:05:54;;;;;;;15.48;3.10;;;21.90;99.90;;;;;;4979140;28;20189;-70
2022/01/06 11:08:27;;;;;;;24.70;4.90;;;21.80;99.90;;;;;;4978809;28;20019;-75
2022/01/06 11:13:32;;;;;;;18.52;3.90;;;21.80;99.90;;;;;;4986223;28;20041;-72
2022/01/06 11:16:00;;;;;;;25.48;5.18;;;21.90;99.90;;;;;;4993126;28;20084;-70
2022/01/06 11:18:28;;;;;;;30.17;4.38;;;21.80;99.90;;;;;;4991608;28;20113;-69
2022/01/06 11:21:17;;;;;;;20.33;4.22;;;21.80;99.90;;;;;;4993507;28;20021;-74
2022/01/06 11:23:45;;;;;;;23.15;4.20;;;21.80;99.90;;;;;;4993567;28;20018;-74
2022/01/06 11:26:22;;;;;;;24.63;3.70;;;21.80;99.90;;;;;;4992037;28;20133;-73
2022/01/06 11:29:00;;;;;;;14.95;2.75;;;21.90;99.90;;;;;;4993565;28;20021;-72
2022/01/06 11:31:35;;;;;;;32.53;4.45;;;21.90;99.90;;;;;;4993092;28;20029;-70
2022/01/06 11:34:10;;;;;;;;;;;21.80;99.90;;;;;;4984995;28;20030;-70
2022/01/06 11:36:38;;;;;;;16.17;3.20;;;21.80;99.90;;;;;;4978551;28;20000;-70
2022/01/06 11:39:09;;;;;;;16.27;3.90;;;21.80;99.90;;;;;;4993193;28;20026;-69
2022/01/06 11:41:41;;;;;;;19.92;3.05;;;21.80;99.90;;;;;;4992944;28;20034;-70
2022/01/06 11:44:19;;;;;;;24.13;4.45;;;21.80;99.90;;;;;;4993174;28;20025;-71
2022/01/06 11:46:50;;;;;;;23.05;4.13;;;21.80;99.90;;;;;;4992779;28;20140;-70
2022/01/06 11:49:33;;;;;;;17.23;3.30;;;21.80;99.90;;;;;;4992934;28;20093;-71
2022/01/06 11:52:16;;;;;;;32.22;3.75;;;21.90;99.90;;;;;;4993201;28;20068;-70
2022/01/06 11:55:13;;;;;;;23.23;4.80;;;21.80;99.90;;;;;;4993214;28;20069;-70
2022/01/06 11:57:40;;;;;;;26.92;3.90;;;21.80;99.90;;;;;;4992713;28;20521;-69
2022/01/06 12:00:21;;;;;;;18.05;3.10;;;21.90;99.90;;;;;;4988811;28;20034;-69
2022/01/06 12:03:11;;;;;;;29.85;3.92;;;21.80;99.90;;;;;;4992744;28;20076;-69
2022/01/06 12:05:54;;;;;;;15.57;3.28;;;21.90;99.90;;;;;;4992629;28;20037;-70
2022/01/06 12:08:34;;;;;;;23.85;4.22;;;21.80;99.90;;;;;;4990865;28;20038;-69
2022/01/06 12:11:02;;;;;;;23.27;4.18;;;21.80;99.90;;;;;;4992880;28;20019;-70
2022/01/06 12:13:29;;;;;;;16.35;2.92;;;21.90;99.90;;;;;;4992853;28;20065;-68
2022/01/06 12:16:01;;;;;;;25.75;4.93;;;21.90;99.90;;;;;;4993168;28;20034;-72
2022/01/06 12:18:32;;;;;;;20.35;4.30;;;21.90;99.90;;;;;;4992089;28;20022;-72
2022/01/06 12:20:59;;;;;;;15.50;4.18;;;21.90;99.90;;;;;;4992811;28;20014;-69
2022/01/06 12:23:27;;;;;;;18.42;3.50;;;21.90;99.90;;;;;;4992656;28;20472;-70
2022/01/06 12:26:08;;;;;;;25.48;4.55;;;21.90;99.90;;;;;;4992114;28;20380;-70
2022/01/06 12:28:48;;;;;;;17.27;3.78;;;21.90;99.90;;;;;;4992562;28;20135;-69
2022/01/06 12:31:28;;;;;;;16.88;3.22;;;21.90;99.90;;;;;;4992632;28;20478;-69
2022/01/06 12:34:02;;;;;;;26.27;3.10;;;21.90;99.90;;;;;;4992679;28;20046;-70
2022/01/06 12:36:32;;;;;;;22.55;4.20;;;21.90;99.90;;;;;;4992814;28;20031;-71
2022/01/06 12:39:18;;;;;;;14.07;2.97;;;21.90;99.90;;;;;;4990492;28;20017;-70
2022/01/06 12:41:48;;;;;;;23.65;4.30;;;21.90;99.90;;;;;;4992713;28;20428;-70
2022/01/06 12:44:28;;;;;;;29.10;3.63;;;21.90;99.90;;;;;;4994778;28;20611;-70
2022/01/06 12:46:57;;;;;;;20.00;3.97;;;21.90;99.90;;;;;;4996048;28;20092;-70
2022/01/06 12:49:28;;;;;;;20.42;3.10;;;22.00;99.90;;;;;;4996165;28;20471;-69
2022/01/06 12:51:57;;;;;;;25.88;3.85;;;21.90;99.90;;;;;;4995626;28;20027;-69
2022/01/06 12:54:25;;;;;;;21.67;3.28;;;22.00;99.90;;;;;;4995961;28;20032;-69
2022/01/06 12:56:55;;;;;;;25.25;4.35;;;22.00;99.90;;;;;;4997404;28;20112;-69
2022/01/06 12:59:33;;;;;;;24.58;3.75;;;22.00;99.90;;;;;;4993172;28;20026;-70
2022/01/06 13:02:04;;;;;;;23.92;4.28;;;22.00;99.90;;;;;;4992393;28;20506;-70
2022/01/06 13:04:33;;;;;;;28.38;4.22;;;22.00;99.90;;;;;;4995553;28;20029;-70